Terminal Aerodrome Forecast
Issued by NWS St Louis, MO

Home | Current Version | Previous Version | Text Only | Print | Product List | Glossary On
Versions: 1 2 3 4 5 6 7 8 9 10 11 12 13
000
FTUS43 KLSX 250523
TAFCOU
TAF
KCOU 250523Z 2506/2606 15010KT P6SM FEW250
     FM251500 16015G25KT P6SM BKN200
     FM260100 16012KT P6SM BKN040=

USA.gov is the U.S. government's official web portal to all federal, state and local government web resources and services.